createdAt,value
2023-02-11T00:00:42.202Z,6.57
2023-02-11T00:03:09.863Z,5.93
2023-02-11T00:05:36.860Z,6.03
2023-02-11T00:08:04.106Z,5.47
2023-02-11T00:10:31.016Z,5.38
2023-02-11T00:12:58.001Z,5.53
2023-02-11T00:15:24.916Z,6.20
2023-02-11T00:17:51.777Z,5.90
2023-02-11T00:20:18.725Z,6.15
2023-02-11T00:22:45.773Z,5.57
2023-02-11T00:25:12.831Z,5.50
2023-02-11T00:27:39.867Z,5.43
2023-02-11T00:30:07.339Z,5.70
2023-02-11T00:32:34.374Z,5.35
2023-02-11T00:35:01.423Z,5.82
2023-02-11T00:37:37.379Z,5.45
2023-02-11T00:40:06.836Z,5.82
2023-02-11T00:42:35.718Z,5.78
2023-02-11T00:45:02.663Z,5.82
2023-02-11T00:47:29.657Z,6.05
2023-02-11T00:49:56.579Z,5.88
2023-02-11T00:52:23.524Z,6.28
2023-02-11T00:54:50.450Z,6.28
2023-02-11T00:57:17.314Z,5.43
2023-02-11T00:59:44.195Z,5.75
2023-02-11T01:02:11.108Z,6.13
2023-02-11T01:04:38.075Z,5.88
2023-02-11T01:07:04.991Z,5.22
2023-02-11T01:09:31.861Z,6.10
2023-02-11T01:11:58.968Z,5.38
2023-02-11T01:14:27.347Z,5.85
2023-02-11T01:16:54.432Z,5.32
2023-02-11T01:19:21.397Z,5.22
2023-02-11T01:21:48.325Z,5.82
2023-02-11T01:24:15.312Z,6.20
2023-02-11T01:26:42.327Z,6.03
2023-02-11T01:29:09.513Z,5.63
2023-02-11T01:31:36.651Z,5.32
2023-02-11T01:34:03.635Z,5.85
2023-02-11T01:36:30.575Z,6.13
2023-02-11T01:38:57.565Z,5.50
2023-02-11T01:41:24.560Z,5.38
2023-02-11T01:43:51.491Z,6.20
2023-02-11T01:46:29.979Z,5.88
2023-02-11T01:49:18.512Z,5.82
2023-02-11T01:51:50.642Z,5.82
2023-02-11T01:54:40.154Z,5.35
2023-02-11T01:57:23.235Z,5.53
2023-02-11T02:00:01.441Z,5.82
2023-02-11T02:03:00.880Z,5.30
2023-02-11T02:05:30.862Z,5.50
2023-02-11T02:08:29.591Z,5.60
2023-02-11T02:10:58.549Z,5.72
2023-02-11T02:13:26.951Z,5.93
2023-02-11T02:15:56.729Z,5.70
2023-02-11T02:18:45.281Z,5.75
2023-02-11T02:21:30.766Z,5.88
2023-02-11T02:24:19.625Z,5.72
2023-02-11T02:27:26.091Z,5.55
2023-02-11T02:30:11.543Z,5.80
2023-02-11T02:33:05.809Z,5.80
2023-02-11T02:36:07.305Z,5.82
2023-02-11T02:38:40.951Z,6.22
2023-02-11T02:41:17.804Z,5.68
2023-02-11T02:43:49.193Z,5.28
2023-02-11T02:46:20.903Z,5.68
2023-02-11T02:48:52.845Z,5.80
2023-02-11T02:51:56.872Z,5.82
2023-02-11T02:54:33.348Z,5.65
2023-02-11T02:57:12.142Z,5.13
2023-02-11T02:59:57.997Z,5.30
2023-02-11T03:02:43.989Z,4.97
2023-02-11T03:05:22.379Z,5.30
2023-02-11T03:07:58.841Z,5.90
2023-02-11T03:10:30.474Z,5.28
2023-02-11T03:12:58.217Z,5.28
2023-02-11T03:15:28.427Z,5.43
2023-02-11T03:17:59.086Z,5.88
2023-02-11T03:20:30.492Z,5.85
2023-02-11T03:23:03.340Z,5.78
2023-02-11T03:25:36.469Z,5.68
2023-02-11T03:28:16.090Z,6.18
2023-02-11T03:30:52.447Z,6.00
2023-02-11T03:33:27.464Z,5.88
2023-02-11T03:36:04.419Z,5.88
2023-02-11T03:38:36.790Z,6.07
2023-02-11T03:41:07.785Z,6.30
2023-02-11T03:43:40.577Z,5.78
2023-02-11T03:46:09.780Z,6.22
2023-02-11T03:48:44.880Z,6.13
2023-02-11T03:51:14.188Z,6.40
2023-02-11T03:53:44.719Z,6.88
2023-02-11T03:56:17.017Z,6.50
2023-02-11T03:58:47.950Z,6.63
2023-02-11T04:01:15.028Z,6.40
2023-02-11T04:03:42.063Z,7.68
2023-02-11T04:06:09.263Z,7.78
2023-02-11T04:08:36.216Z,7.57
2023-02-11T04:11:03.223Z,7.63
2023-02-11T04:13:30.401Z,7.40
2023-02-11T04:15:57.412Z,7.88
2023-02-11T04:18:24.541Z,7.50
2023-02-11T04:20:51.510Z,8.30
2023-02-11T04:23:18.399Z,7.72
2023-02-11T04:25:45.355Z,8.40
2023-02-11T04:28:12.256Z,7.47
2023-02-11T04:30:39.204Z,7.90
2023-02-11T04:33:06.171Z,8.38
2023-02-11T04:35:33.339Z,8.25
2023-02-11T04:38:00.257Z,8.70
2023-02-11T04:40:27.313Z,8.02
2023-02-11T04:42:54.260Z,7.75
2023-02-11T04:45:21.301Z,7.95
2023-02-11T04:47:48.290Z,7.78
2023-02-11T04:50:15.340Z,8.52
2023-02-11T04:52:42.239Z,7.75
2023-02-11T04:55:09.239Z,8.02
2023-02-11T04:57:36.282Z,8.52
2023-02-11T05:00:03.961Z,8.35
2023-02-11T05:02:30.935Z,8.65
2023-02-11T05:04:57.828Z,8.55
2023-02-11T05:07:24.927Z,9.15
2023-02-11T05:09:51.781Z,9.50
2023-02-11T05:12:18.766Z,9.57
2023-02-11T05:14:45.684Z,9.13
2023-02-11T05:17:12.560Z,9.13
2023-02-11T05:19:39.405Z,10.05
2023-02-11T05:22:06.247Z,10.15
2023-02-11T05:24:33.267Z,8.88
2023-02-11T05:27:00.658Z,9.85
2023-02-11T05:29:28.092Z,9.95
2023-02-11T05:31:55.019Z,9.68
2023-02-11T05:34:21.898Z,10.52
2023-02-11T05:36:48.720Z,10.15
2023-02-11T05:39:15.738Z,9.85
2023-02-11T05:41:42.717Z,10.07
2023-02-11T05:44:10.126Z,10.38
2023-02-11T05:46:37.037Z,10.43
2023-02-11T05:49:03.988Z,11.15
2023-02-11T05:51:30.856Z,10.05
2023-02-11T05:53:57.804Z,10.23
2023-02-11T05:56:24.620Z,11.50
2023-02-11T05:58:51.484Z,10.63
2023-02-11T06:01:18.382Z,11.07
2023-02-11T06:03:45.377Z,11.63
2023-02-11T06:06:12.866Z,10.70
2023-02-11T06:08:40.249Z,11.27
2023-02-11T06:11:07.406Z,12.27
2023-02-11T06:13:34.805Z,11.45
2023-02-11T06:16:03.335Z,11.13
2023-02-11T06:18:30.572Z,11.57
2023-02-11T06:20:57.570Z,11.57
2023-02-11T06:23:24.453Z,12.85
2023-02-11T06:25:53.002Z,12.48
2023-02-11T06:28:20.178Z,11.98
2023-02-11T06:30:47.181Z,12.35
2023-02-11T06:33:14.143Z,11.80
2023-02-11T06:35:41.102Z,12.48
2023-02-11T06:38:08.052Z,12.02
2023-02-11T06:40:35.073Z,12.25
2023-02-11T06:43:02.036Z,12.18
2023-02-11T06:45:29.016Z,12.63
2023-02-11T06:47:55.963Z,13.20
2023-02-11T06:50:22.837Z,13.82
2023-02-11T06:52:49.816Z,12.48
2023-02-11T06:55:16.864Z,13.23
2023-02-11T06:57:43.790Z,12.80
2023-02-11T07:00:11.276Z,13.20
2023-02-11T07:02:38.448Z,12.32
2023-02-11T07:05:07.578Z,13.38
2023-02-11T07:07:34.678Z,12.55
2023-02-11T07:10:04.075Z,14.50
2023-02-11T07:12:31.942Z,13.85
2023-02-11T07:14:58.909Z,13.80
2023-02-11T07:17:25.731Z,15.02
2023-02-11T07:19:52.724Z,14.82
2023-02-11T07:22:19.783Z,14.32
2023-02-11T07:24:46.693Z,13.98
2023-02-11T07:27:13.548Z,14.70
2023-02-11T07:29:42.350Z,14.85
2023-02-11T07:32:09.398Z,14.63
2023-02-11T07:34:36.781Z,14.88
2023-02-11T07:37:03.687Z,14.98
2023-02-11T07:39:30.624Z,15.50
2023-02-11T07:41:57.644Z,15.35
2023-02-11T07:44:24.517Z,16.33
2023-02-11T07:46:51.580Z,16.50
2023-02-11T07:49:18.831Z,16.35
2023-02-11T07:51:46.047Z,16.17
2023-02-11T07:54:12.917Z,15.98
2023-02-11T07:56:39.923Z,16.45
2023-02-11T07:59:07.165Z,15.30
2023-02-11T08:01:34.033Z,16.05
2023-02-11T08:04:02.105Z,15.90
2023-02-11T08:06:33.037Z,15.25
2023-02-11T08:09:05.727Z,15.90
2023-02-11T08:11:32.939Z,15.60
2023-02-11T08:13:59.892Z,15.55
2023-02-11T08:16:35.300Z,15.25
2023-02-11T08:19:10.938Z,14.82
2023-02-11T08:21:39.346Z,15.25
2023-02-11T08:24:06.976Z,15.68
2023-02-11T08:26:35.253Z,15.63
2023-02-11T08:29:07.777Z,16.88
2023-02-11T08:31:37.685Z,15.77
2023-02-11T08:34:05.492Z,15.98
2023-02-11T08:36:35.574Z,16.50
2023-02-11T08:39:18.128Z,15.80
2023-02-11T08:41:48.913Z,15.43
2023-02-11T08:44:17.071Z,16.95
2023-02-11T08:46:43.967Z,16.95
2023-02-11T08:49:10.918Z,17.45
2023-02-11T08:51:37.762Z,17.20
2023-02-11T08:54:06.164Z,17.23
2023-02-11T08:56:33.697Z,16.70
2023-02-11T08:59:00.813Z,17.30
2023-02-11T09:01:30.978Z,17.60
2023-02-11T09:03:59.273Z,17.35
2023-02-11T09:06:27.174Z,17.75
2023-02-11T09:08:56.024Z,18.15
2023-02-11T09:11:27.742Z,17.60
2023-02-11T09:13:54.860Z,16.80
2023-02-11T09:16:25.207Z,17.33
2023-02-11T09:18:52.749Z,17.40
2023-02-11T09:21:20.406Z,18.85
2023-02-11T09:23:47.903Z,19.67
2023-02-11T09:26:17.466Z,18.50
2023-02-11T09:28:44.427Z,17.83
2023-02-11T09:31:14.594Z,17.80
2023-02-11T09:33:48.054Z,18.00
2023-02-11T09:36:30.041Z,17.88
2023-02-11T09:38:58.983Z,19.02
2023-02-11T09:41:44.459Z,18.98
2023-02-11T09:44:19.972Z,18.55
2023-02-11T09:46:53.851Z,17.95
2023-02-11T09:49:26.542Z,18.67
2023-02-11T09:52:03.225Z,19.13
2023-02-11T09:55:02.001Z,20.23
2023-02-11T09:57:34.552Z,18.67
2023-02-11T10:00:15.773Z,20.15
2023-02-11T10:03:05.269Z,18.63
2023-02-11T10:05:44.072Z,20.20
2023-02-11T10:08:22.682Z,19.25
2023-02-11T10:10:59.962Z,19.95
2023-02-11T10:13:52.400Z,19.10
2023-02-11T10:16:30.217Z,21.15
2023-02-11T10:19:05.303Z,18.98
2023-02-11T10:21:50.631Z,19.92
2023-02-11T10:24:18.384Z,20.95
2023-02-11T10:26:46.070Z,20.58
2023-02-11T10:29:38.485Z,20.75
2023-02-11T10:32:39.645Z,20.35
2023-02-11T10:35:15.615Z,19.98
2023-02-11T10:37:44.473Z,20.98
2023-02-11T10:40:20.685Z,19.15
2023-02-11T10:42:52.462Z,21.63
2023-02-11T10:45:36.255Z,19.58
2023-02-11T10:48:26.931Z,20.05
2023-02-11T10:51:14.715Z,20.05
2023-02-11T10:53:43.153Z,20.00
2023-02-11T10:56:14.904Z,19.80
2023-02-11T10:58:45.766Z,19.40
2023-02-11T11:01:24.417Z,20.65
2023-02-11T11:03:52.961Z,19.50
2023-02-11T11:06:31.980Z,20.80
2023-02-11T11:08:59.123Z,20.02
2023-02-11T11:11:27.352Z,20.25
2023-02-11T11:13:58.325Z,21.17
2023-02-11T11:16:36.002Z,20.60
2023-02-11T11:19:08.782Z,20.38
2023-02-11T11:21:47.157Z,20.98
2023-02-11T11:24:20.474Z,19.63
2023-02-11T11:26:53.986Z,21.05
2023-02-11T11:29:27.788Z,19.77
2023-02-11T11:32:01.407Z,20.02
2023-02-11T11:34:38.871Z,19.98
2023-02-11T11:37:33.751Z,20.33
2023-02-11T11:40:11.414Z,20.30
2023-02-11T11:42:39.354Z,20.08
2023-02-11T11:45:26.113Z,20.67
2023-02-11T11:47:57.960Z,19.15
2023-02-11T11:50:44.942Z,19.20
2023-02-11T11:53:23.740Z,20.63
2023-02-11T11:56:04.367Z,20.45
2023-02-11T11:58:32.272Z,20.42
2023-02-11T12:01:20.860Z,20.45
2023-02-11T12:04:10.706Z,20.45
2023-02-11T12:06:58.947Z,20.35
2023-02-11T12:09:37.667Z,20.77
2023-02-11T12:12:16.652Z,20.35
2023-02-11T12:14:58.435Z,20.67
2023-02-11T12:17:46.655Z,23.20
2023-02-11T12:20:18.121Z,21.27
2023-02-11T12:23:17.703Z,21.25
2023-02-11T12:25:49.582Z,20.48
2023-02-11T12:28:22.504Z,19.35
2023-02-11T12:30:52.714Z,20.40
2023-02-11T12:33:44.837Z,21.48
2023-02-11T12:36:32.726Z,21.23
2023-02-11T12:39:41.263Z,20.40
2023-02-11T12:42:45.901Z,20.55
2023-02-11T12:45:13.101Z,21.85
2023-02-11T12:47:53.052Z,20.75
2023-02-11T12:50:33.820Z,21.35
2023-02-11T12:53:06.893Z,21.13
2023-02-11T12:55:45.882Z,21.00
2023-02-11T12:58:18.428Z,21.15
2023-02-11T13:01:04.569Z,21.58
2023-02-11T13:03:43.323Z,20.75
2023-02-11T13:06:20.442Z,21.48
2023-02-11T13:08:48.684Z,21.50
2023-02-11T13:11:24.150Z,20.33
2023-02-11T13:14:15.254Z,21.95
2023-02-11T13:16:45.475Z,21.48
2023-02-11T13:19:15.230Z,21.63
2023-02-11T13:21:55.742Z,21.13
2023-02-11T13:25:02.171Z,20.80
2023-02-11T13:27:38.016Z,21.88
2023-02-11T13:30:24.981Z,21.42
2023-02-11T13:32:54.744Z,22.35
2023-02-11T13:35:29.616Z,21.60
2023-02-11T13:37:57.899Z,22.52
2023-02-11T13:40:37.936Z,22.65
2023-02-11T13:43:07.156Z,21.80
2023-02-11T13:45:43.449Z,23.08
2023-02-11T13:48:25.356Z,21.52
2023-02-11T13:50:56.513Z,22.33
2023-02-11T13:53:24.348Z,22.92
2023-02-11T13:56:04.192Z,23.33
2023-02-11T13:58:31.075Z,23.52
2023-02-11T14:00:58.524Z,22.27
2023-02-11T14:03:56.204Z,22.95
2023-02-11T14:06:47.338Z,23.15
2023-02-11T14:09:14.182Z,22.50
2023-02-11T14:11:48.579Z,23.73
2023-02-11T14:14:36.133Z,22.52
2023-02-11T14:17:09.300Z,22.95
2023-02-11T14:19:41.881Z,22.00
2023-02-11T14:22:15.214Z,22.92
2023-02-11T14:24:55.361Z,22.13
2023-02-11T14:28:05.333Z,22.05
2023-02-11T14:30:56.377Z,21.88
2023-02-11T14:33:23.412Z,23.05
2023-02-11T14:35:53.105Z,23.48
2023-02-11T14:38:28.147Z,23.45
2023-02-11T14:41:27.312Z,22.80
2023-02-11T14:43:58.560Z,22.65
2023-02-11T14:46:29.939Z,23.00
2023-02-11T14:49:01.408Z,24.35
2023-02-11T14:51:38.736Z,23.52
2023-02-11T14:54:25.502Z,22.85
2023-02-11T14:57:13.744Z,23.80
2023-02-11T14:59:55.123Z,23.27
2023-02-11T15:02:30.529Z,23.10
2023-02-11T15:05:16.361Z,23.98
2023-02-11T15:07:46.368Z,24.63
2023-02-11T15:10:26.552Z,23.40
2023-02-11T15:12:54.171Z,24.15
2023-02-11T15:15:21.714Z,24.02
2023-02-11T15:17:48.697Z,24.17
2023-02-11T15:20:42.058Z,25.10
2023-02-11T15:23:20.187Z,25.58
2023-02-11T15:25:52.846Z,25.48
2023-02-11T15:28:31.061Z,26.75
2023-02-11T15:31:03.888Z,25.15
2023-02-11T15:33:32.485Z,24.67
2023-02-11T15:36:00.815Z,24.45
2023-02-11T15:38:29.893Z,25.73
2023-02-11T15:41:02.870Z,24.92
2023-02-11T15:43:47.991Z,23.27
2023-02-11T15:46:20.689Z,25.05
2023-02-11T15:48:53.262Z,24.70
2023-02-11T15:51:29.578Z,23.90
2023-02-11T15:54:02.601Z,24.73
2023-02-11T15:56:37.659Z,25.35
2023-02-11T15:59:15.289Z,26.38
2023-02-11T16:01:42.702Z,25.70
2023-02-11T16:04:18.490Z,25.73
2023-02-11T16:06:48.180Z,25.67
2023-02-11T16:09:15.201Z,26.08
2023-02-11T16:11:48.442Z,27.52
2023-02-11T16:14:27.535Z,25.88
2023-02-11T16:16:58.876Z,26.80
2023-02-11T16:19:27.052Z,26.38
2023-02-11T16:21:56.518Z,27.02
2023-02-11T16:24:29.581Z,29.02
2023-02-11T16:27:03.011Z,26.15
2023-02-11T16:29:32.660Z,27.10
2023-02-11T16:32:29.694Z,27.38
2023-02-11T16:34:59.408Z,27.08
2023-02-11T16:37:27.213Z,28.08
2023-02-11T16:39:54.994Z,27.08
2023-02-11T16:42:21.911Z,25.85
2023-02-11T16:44:48.838Z,27.85
2023-02-11T16:47:24.446Z,29.77
2023-02-11T16:49:51.459Z,27.63
2023-02-11T16:52:20.252Z,27.98
2023-02-11T16:54:47.208Z,28.35
2023-02-11T16:57:16.233Z,27.65
2023-02-11T16:59:43.380Z,27.33
2023-02-11T17:02:26.626Z,30.77
2023-02-11T17:04:55.220Z,26.45
2023-02-11T17:07:22.482Z,26.55
2023-02-11T17:09:49.519Z,27.42
2023-02-11T17:12:16.368Z,28.63
2023-02-11T17:14:43.246Z,26.88
2023-02-11T17:17:10.866Z,30.15
2023-02-11T17:19:38.611Z,31.08
2023-02-11T17:22:06.229Z,30.85
2023-02-11T17:24:33.098Z,29.83
2023-02-11T17:27:00.003Z,32.15
2023-02-11T17:29:27.120Z,31.85
2023-02-11T17:31:54.363Z,35.60
2023-02-11T17:34:22.794Z,31.05
2023-02-11T17:36:49.819Z,31.15
2023-02-11T17:39:16.952Z,33.38
2023-02-11T17:41:43.922Z,30.83
2023-02-11T17:44:16.534Z,35.25
2023-02-11T17:46:44.004Z,33.35
2023-02-11T17:49:12.281Z,31.75
2023-02-11T17:51:39.963Z,30.02
2023-02-11T17:54:13.449Z,29.50
2023-02-11T17:56:40.914Z,29.63
2023-02-11T17:59:09.504Z,28.70
2023-02-11T18:01:38.010Z,29.17
2023-02-11T18:04:06.088Z,30.30
2023-02-11T18:06:33.994Z,29.75
2023-02-11T18:09:04.154Z,29.65
2023-02-11T18:11:33.733Z,31.13
2023-02-11T18:14:02.237Z,29.02
2023-02-11T18:16:30.476Z,28.50
2023-02-11T18:18:58.620Z,30.25
2023-02-11T18:21:25.727Z,30.85
2023-02-11T18:23:53.347Z,31.85
2023-02-11T18:26:21.381Z,30.42
2023-02-11T18:28:48.400Z,29.70
2023-02-11T18:31:15.690Z,30.13
2023-02-11T18:33:43.095Z,29.15
2023-02-11T18:36:12.922Z,30.40
2023-02-11T18:38:40.458Z,30.40
2023-02-11T18:41:08.238Z,29.60
2023-02-11T18:43:35.242Z,30.23
2023-02-11T18:46:07.246Z,31.85
2023-02-11T18:48:34.261Z,31.00
2023-02-11T18:51:01.176Z,30.05
2023-02-11T18:53:28.111Z,30.95
2023-02-11T18:55:55.356Z,29.13
2023-02-11T18:58:22.494Z,31.00
2023-02-11T19:00:50.221Z,33.53
2023-02-11T19:03:17.316Z,31.08
2023-02-11T19:05:49.056Z,40.08
2023-02-11T19:08:17.301Z,34.42
2023-02-11T19:10:47.214Z,34.28
2023-02-11T19:13:14.526Z,32.55
2023-02-11T19:15:45.404Z,33.47
2023-02-11T19:18:13.814Z,33.40
2023-02-11T19:20:44.630Z,33.70
2023-02-11T19:23:11.763Z,33.08
2023-02-11T19:25:45.878Z,32.67
2023-02-11T19:28:13.285Z,32.70
2023-02-11T19:30:40.440Z,31.95
2023-02-11T19:33:10.070Z,32.00
2023-02-11T19:35:37.218Z,31.55
2023-02-11T19:38:05.065Z,31.52
2023-02-11T19:40:32.879Z,31.77
2023-02-11T19:42:59.929Z,32.92
2023-02-11T19:45:27.073Z,31.48
2023-02-11T19:47:57.454Z,33.17
2023-02-11T19:50:24.890Z,33.03
2023-02-11T19:52:51.939Z,32.42
2023-02-11T19:55:19.156Z,32.40
2023-02-11T19:57:46.401Z,31.42
2023-02-11T20:00:13.939Z,33.13
2023-02-11T20:02:41.153Z,31.75
2023-02-11T20:05:08.519Z,30.58
2023-02-11T20:07:35.880Z,28.83
2023-02-11T20:10:03.330Z,29.00
2023-02-11T20:12:30.374Z,31.23
2023-02-11T20:14:57.309Z,29.92
2023-02-11T20:17:24.322Z,30.10
2023-02-11T20:19:51.329Z,28.70
2023-02-11T20:22:18.364Z,30.45
2023-02-11T20:24:45.446Z,28.02
2023-02-11T20:27:13.033Z,28.45
2023-02-11T20:29:40.334Z,28.88
2023-02-11T20:32:08.242Z,29.50
2023-02-11T20:34:35.277Z,31.88
2023-02-11T20:37:04.104Z,30.13
2023-02-11T20:39:31.056Z,30.13
2023-02-11T20:41:58.264Z,30.25
2023-02-11T20:44:25.380Z,30.60
2023-02-11T20:46:54.124Z,32.50
2023-02-11T20:49:24.728Z,30.98
2023-02-11T20:51:53.798Z,31.77
2023-02-11T20:54:21.709Z,31.60
2023-02-11T20:56:51.152Z,30.95
2023-02-11T20:59:19.587Z,31.00
2023-02-11T21:01:49.638Z,29.95
2023-02-11T21:04:26.085Z,30.83
2023-02-11T21:06:57.628Z,31.15
2023-02-11T21:09:27.041Z,30.08
2023-02-11T21:11:54.778Z,30.30
2023-02-11T21:14:23.283Z,31.13
2023-02-11T21:16:51.003Z,33.20
2023-02-11T21:19:18.083Z,31.08
2023-02-11T21:21:45.447Z,31.02
2023-02-11T21:24:13.057Z,30.27
2023-02-11T21:26:40.192Z,30.75
2023-02-11T21:29:08.647Z,30.50
2023-02-11T21:31:36.577Z,29.20
2023-02-11T21:34:04.926Z,29.48
2023-02-11T21:36:32.024Z,28.08
2023-02-11T21:39:00.152Z,26.15
2023-02-11T21:41:27.477Z,26.77
2023-02-11T21:43:54.705Z,27.63
2023-02-11T21:46:22.487Z,27.17
2023-02-11T21:48:50.427Z,29.00
2023-02-11T21:51:20.558Z,30.85
2023-02-11T21:53:48.269Z,29.10
2023-02-11T21:56:17.834Z,27.75
2023-02-11T21:58:46.105Z,27.88
2023-02-11T22:01:18.126Z,26.55
2023-02-11T22:03:46.350Z,26.30
2023-02-11T22:06:15.899Z,25.85
2023-02-11T22:08:43.282Z,26.40
2023-02-11T22:11:12.589Z,26.48
2023-02-11T22:13:40.527Z,26.58
2023-02-11T22:16:11.983Z,25.38
2023-02-11T22:18:40.144Z,25.95
2023-02-11T22:21:10.540Z,25.80
2023-02-11T22:23:38.670Z,25.40
2023-02-11T22:26:08.658Z,24.67
2023-02-11T22:28:38.850Z,24.67
2023-02-11T22:31:06.182Z,25.15
2023-02-11T22:33:33.895Z,24.23
2023-02-11T22:36:06.528Z,23.30
2023-02-11T22:38:33.941Z,24.52
2023-02-11T22:41:06.770Z,23.10
2023-02-11T22:43:33.934Z,23.60
2023-02-11T22:46:02.645Z,22.83
2023-02-11T22:48:29.849Z,23.67
2023-02-11T22:50:57.050Z,22.55
2023-02-11T22:53:25.572Z,22.17
2023-02-11T22:55:52.902Z,22.42
2023-02-11T22:58:22.203Z,21.67
2023-02-11T23:00:49.182Z,21.02
2023-02-11T23:03:16.138Z,22.08
2023-02-11T23:05:43.416Z,20.63
2023-02-11T23:08:12.121Z,20.60
2023-02-11T23:10:40.229Z,20.30
2023-02-11T23:13:10.057Z,20.80
2023-02-11T23:15:41.775Z,19.75
2023-02-11T23:18:09.784Z,19.83
2023-02-11T23:20:38.526Z,18.83
2023-02-11T23:23:05.964Z,18.30
2023-02-11T23:25:33.359Z,20.30
2023-02-11T23:28:01.031Z,19.83
2023-02-11T23:30:29.194Z,19.95
2023-02-11T23:32:56.211Z,19.95
2023-02-11T23:35:23.292Z,19.85
2023-02-11T23:37:53.807Z,19.42
2023-02-11T23:40:21.548Z,19.80
2023-02-11T23:42:49.165Z,19.45
2023-02-11T23:45:16.175Z,19.98
2023-02-11T23:47:43.218Z,19.08
2023-02-11T23:50:11.693Z,18.65
2023-02-11T23:52:38.693Z,19.38
2023-02-11T23:55:06.093Z,19.88
2023-02-11T23:57:33.774Z,18.35
